Stone Park, Illinois
Current Conditions -  °F | °C
As of 5:29 AM on Saturday 20 Dec 2014 (Local Time) from KORD Reporting Station
Overcast Overcast  
Wind Chill: 29°   Ceiling: 2400
Heat Index: 29°   Visibility: 10mi
Dew Point: 23°   Wind: 3mph
Humidity: 78%   Direction: 250°WSW
Pressure: 30.27"   Gusts: NA
Location:  41.91°N, 87.88°W
Report Text: KORD 201129Z 25003KT 10SM BKN024 OVC029 M02/M05 A3027 RMK AO2 T10171050
Loading
Personal Weather Stations






























Interactive Weather Map New forecast layout! Learn more

10-Day Weather Forecast

Advertisements
Track Severe Weather on mobile